Terminal Aerodrome Forecast
Issued by NWS

Current Version | Previous Version | Text Only | Print | Product List | Glossary On
Versions: 1 2 3 4 5 6 7 8 9 10 11 12
000
FTUS45 KGGW 251100
TAFSDY
TAF
KSDY 251133Z 2512/2612 00000KT P6SM BKN070
     FM251500 VRB06KT P6SM BKN060
     FM251800 12009KT P6SM VCSH BKN070
     FM260000 13009KT P6SM BKN140
     FM260300 VRB04KT P6SM BKN190
      AMD LTD TO CLD VIS AND WIND=

USA.gov is the U.S. government's official web portal to all federal, state and local government web resources and services.